createdAt,value
2022-07-29T00:06:32.830Z,4.50
2022-07-29T00:17:01.842Z,5.40
2022-07-29T00:27:30.728Z,6.10
2022-07-29T00:37:59.879Z,4.70
2022-07-29T00:48:30.946Z,4.00
2022-07-29T00:59:01.290Z,4.90
2022-07-29T01:09:42.106Z,4.40
2022-07-29T01:20:20.870Z,4.50
2022-07-29T01:30:53.350Z,4.20
2022-07-29T01:41:24.401Z,4.40
2022-07-29T01:51:57.195Z,3.20
2022-07-29T02:02:27.297Z,3.60
2022-07-29T02:12:57.684Z,3.30
2022-07-29T02:23:28.167Z,2.80
2022-07-29T02:33:58.679Z,3.20
2022-07-29T02:44:34.164Z,3.10
2022-07-29T02:55:12.164Z,2.70
2022-07-29T03:05:42.467Z,3.00
2022-07-29T03:16:14.279Z,3.20
2022-07-29T03:26:43.431Z,2.70
2022-07-29T03:37:12.220Z,3.10
2022-07-29T03:47:51.140Z,2.90
2022-07-29T03:58:23.696Z,2.20
2022-07-29T04:08:52.598Z,2.80
2022-07-29T04:19:21.511Z,2.90
2022-07-29T04:29:56.480Z,2.80
2022-07-29T04:40:26.395Z,2.60
2022-07-29T04:50:55.434Z,3.00
2022-07-29T05:01:24.853Z,2.80
2022-07-29T05:11:54.058Z,2.70
2022-07-29T05:22:23.582Z,3.00
2022-07-29T05:32:52.786Z,3.00
2022-07-29T05:43:22.416Z,3.20
2022-07-29T05:53:52.632Z,3.10
2022-07-29T06:04:21.943Z,4.10
2022-07-29T06:14:54.245Z,4.00
2022-07-29T06:25:24.016Z,2.90
2022-07-29T06:35:55.140Z,3.30
2022-07-29T06:46:26.413Z,4.30
2022-07-29T06:56:55.438Z,4.00
2022-07-29T07:07:24.639Z,4.00
2022-07-29T07:17:53.753Z,4.00
2022-07-29T07:28:24.600Z,4.30
2022-07-29T07:38:53.633Z,4.30
2022-07-29T07:49:22.659Z,4.60
2022-07-29T07:59:51.725Z,4.20
2022-07-29T08:10:35.560Z,4.50
2022-07-29T08:21:04.465Z,5.00
2022-07-29T08:31:33.515Z,4.70
2022-07-29T08:42:02.718Z,4.40
2022-07-29T08:52:35.302Z,4.60
2022-07-29T09:03:04.815Z,4.70
2022-07-29T09:13:33.804Z,4.70
2022-07-29T09:24:11.342Z,4.70
2022-07-29T09:34:40.717Z,5.00
2022-07-29T09:45:11.777Z,4.70
2022-07-29T09:55:53.441Z,5.00
2022-07-29T10:06:23.067Z,4.80
2022-07-29T10:16:52.584Z,4.80
2022-07-29T10:27:22.006Z,4.80
2022-07-29T10:38:16.514Z,5.40
2022-07-29T10:49:08.732Z,5.40
2022-07-29T10:59:38.517Z,5.80
2022-07-29T11:10:31.246Z,5.40
2022-07-29T11:21:01.811Z,5.40
2022-07-29T11:31:44.245Z,5.00
2022-07-29T11:42:44.569Z,4.30
2022-07-29T11:53:17.445Z,5.00
2022-07-29T12:03:46.578Z,5.20
2022-07-29T12:14:30.785Z,4.50
2022-07-29T12:25:31.939Z,5.00
2022-07-29T12:36:07.189Z,4.60
2022-07-29T12:46:40.088Z,4.80
2022-07-29T12:57:09.197Z,4.60
2022-07-29T13:07:55.291Z,4.40
2022-07-29T13:18:33.455Z,4.90
2022-07-29T13:29:02.536Z,4.60
2022-07-29T13:39:31.885Z,4.50
2022-07-29T13:50:00.937Z,3.50
2022-07-29T14:00:30.090Z,4.30
2022-07-29T14:10:59.311Z,3.70
2022-07-29T14:21:28.427Z,4.50
2022-07-29T14:31:57.798Z,3.50
2022-07-29T14:42:26.984Z,3.70
2022-07-29T14:52:55.932Z,3.70
2022-07-29T15:03:25.992Z,3.50
2022-07-29T15:13:55.044Z,3.30
2022-07-29T15:24:24.274Z,4.20
2022-07-29T15:34:53.132Z,3.90
2022-07-29T15:45:22.200Z,4.70
2022-07-29T15:55:51.056Z,3.60
2022-07-29T16:06:20.371Z,4.50
2022-07-29T16:16:49.613Z,4.60
2022-07-29T16:27:18.564Z,4.00
2022-07-29T16:37:47.493Z,4.40
2022-07-29T16:48:18.706Z,4.70
2022-07-29T16:58:47.701Z,4.40
2022-07-29T17:09:16.881Z,4.00
2022-07-29T17:19:47.128Z,5.00
2022-07-29T17:30:16.702Z,4.90
2022-07-29T17:40:45.498Z,4.80
2022-07-29T17:51:15.574Z,4.70
2022-07-29T18:01:44.762Z,6.50
2022-07-29T18:12:14.231Z,6.90
2022-07-29T18:22:45.293Z,6.70
2022-07-29T18:33:22.116Z,6.80
2022-07-29T18:43:51.396Z,6.30
2022-07-29T18:54:20.675Z,6.40
2022-07-29T19:04:51.148Z,7.50
2022-07-29T19:15:20.696Z,7.00
2022-07-29T19:25:53.760Z,7.30
2022-07-29T19:36:23.255Z,8.00
2022-07-29T19:46:52.144Z,7.00
2022-07-29T19:57:21.346Z,7.50
2022-07-29T20:07:50.408Z,8.20
2022-07-29T20:18:20.629Z,8.60
2022-07-29T20:28:49.789Z,7.30
2022-07-29T20:39:19.031Z,8.90
2022-07-29T20:49:50.010Z,8.90
2022-07-29T21:00:19.547Z,8.80
2022-07-29T21:10:48.540Z,8.40
2022-07-29T21:21:18.400Z,7.60
2022-07-29T21:31:47.258Z,6.80
2022-07-29T21:42:16.056Z,7.50
2022-07-29T21:52:45.020Z,6.70
2022-07-29T22:03:14.127Z,6.30
2022-07-29T22:13:43.060Z,5.70
2022-07-29T22:24:12.862Z,5.70
2022-07-29T22:34:41.753Z,5.60
2022-07-29T22:45:12.529Z,5.40
2022-07-29T22:55:41.455Z,6.10
2022-07-29T23:06:10.529Z,5.70
2022-07-29T23:16:39.486Z,5.90
2022-07-29T23:27:08.711Z,5.80
2022-07-29T23:37:38.068Z,5.00
2022-07-29T23:48:07.389Z,4.40
2022-07-29T23:58:36.932Z,4.40
